sensor_id;sensor_type;location;lat;lon;timestamp;temperature;humidity
9219;DHT22;4644;48.858;9.184;2023-04-03T00:00:32;3.90;99.90
9219;DHT22;4644;48.858;9.184;2023-04-03T00:02:59;3.90;99.90
9219;DHT22;4644;48.858;9.184;2023-04-03T00:05:29;3.80;99.90
9219;DHT22;4644;48.858;9.184;2023-04-03T00:07:56;3.90;99.90
9219;DHT22;4644;48.858;9.184;2023-04-03T00:10:23;3.80;99.90
9219;DHT22;4644;48.858;9.184;2023-04-03T00:12:50;3.80;99.90
9219;DHT22;4644;48.858;9.184;2023-04-03T00:15:19;3.80;99.90
9219;DHT22;4644;48.858;9.184;2023-04-03T00:17:46;3.80;99.90
9219;DHT22;4644;48.858;9.184;2023-04-03T00:20:13;3.70;99.90
9219;DHT22;4644;48.858;9.184;2023-04-03T00:22:40;3.90;99.90
9219;DHT22;4644;48.858;9.184;2023-04-03T00:25:08;3.80;99.90
9219;DHT22;4644;48.858;9.184;2023-04-03T00:27:36;3.90;99.90
9219;DHT22;4644;48.858;9.184;2023-04-03T00:30:06;3.80;99.90
9219;DHT22;4644;48.858;9.184;2023-04-03T00:32:34;3.80;99.90
9219;DHT22;4644;48.858;9.184;2023-04-03T00:35:02;3.70;99.90
9219;DHT22;4644;48.858;9.184;2023-04-03T00:37:29;3.80;99.90
9219;DHT22;4644;48.858;9.184;2023-04-03T00:39:56;3.80;99.90
9219;DHT22;4644;48.858;9.184;2023-04-03T00:42:29;3.80;99.90
9219;DHT22;4644;48.858;9.184;2023-04-03T00:45:26;3.80;99.90
9219;DHT22;4644;48.858;9.184;2023-04-03T00:47:56;3.80;99.90
9219;DHT22;4644;48.858;9.184;2023-04-03T00:50:25;3.70;99.90
9219;DHT22;4644;48.858;9.184;2023-04-03T00:52:53;3.80;99.90
9219;DHT22;4644;48.858;9.184;2023-04-03T00:55:20;3.80;99.90
9219;DHT22;4644;48.858;9.184;2023-04-03T00:57:48;3.80;99.90
9219;DHT22;4644;48.858;9.184;2023-04-03T01:00:19;3.70;99.90
9219;DHT22;4644;48.858;9.184;2023-04-03T01:02:46;3.80;99.90
9219;DHT22;4644;48.858;9.184;2023-04-03T01:05:15;3.80;99.90
9219;DHT22;4644;48.858;9.184;2023-04-03T01:07:43;3.80;99.90
9219;DHT22;4644;48.858;9.184;2023-04-03T01:10:13;3.70;99.90
9219;DHT22;4644;48.858;9.184;2023-04-03T01:12:43;3.70;99.90
9219;DHT22;4644;48.858;9.184;2023-04-03T01:15:12;3.70;99.90
9219;DHT22;4644;48.858;9.184;2023-04-03T01:17:42;3.70;99.90
9219;DHT22;4644;48.858;9.184;2023-04-03T01:23:23;3.60;99.90
9219;DHT22;4644;48.858;9.184;2023-04-03T01:25:54;3.60;99.90
9219;DHT22;4644;48.858;9.184;2023-04-03T01:28:23;3.60;99.90
9219;DHT22;4644;48.858;9.184;2023-04-03T01:30:55;3.60;99.90
9219;DHT22;4644;48.858;9.184;2023-04-03T01:33:26;3.50;99.90
9219;DHT22;4644;48.858;9.184;2023-04-03T01:35:58;3.50;99.90
9219;DHT22;4644;48.858;9.184;2023-04-03T01:38:26;3.40;99.90
9219;DHT22;4644;48.858;9.184;2023-04-03T01:40:53;3.40;99.90
9219;DHT22;4644;48.858;9.184;2023-04-03T01:43:20;3.50;99.90
9219;DHT22;4644;48.858;9.184;2023-04-03T01:45:47;3.50;99.90
9219;DHT22;4644;48.858;9.184;2023-04-03T01:48:15;3.50;99.90
9219;DHT22;4644;48.858;9.184;2023-04-03T01:50:44;3.50;99.90
9219;DHT22;4644;48.858;9.184;2023-04-03T01:53:11;3.50;99.90
9219;DHT22;4644;48.858;9.184;2023-04-03T01:55:38;3.40;99.90
9219;DHT22;4644;48.858;9.184;2023-04-03T01:58:05;3.40;99.90
9219;DHT22;4644;48.858;9.184;2023-04-03T02:00:32;3.40;99.90
9219;DHT22;4644;48.858;9.184;2023-04-03T02:02:59;3.40;99.90
9219;DHT22;4644;48.858;9.184;2023-04-03T02:05:26;3.30;99.90
9219;DHT22;4644;48.858;9.184;2023-04-03T02:07:55;3.30;99.90
9219;DHT22;4644;48.858;9.184;2023-04-03T02:10:22;3.20;99.90
9219;DHT22;4644;48.858;9.184;2023-04-03T02:12:49;3.30;99.90
9219;DHT22;4644;48.858;9.184;2023-04-03T02:15:16;3.40;99.90
9219;DHT22;4644;48.858;9.184;2023-04-03T02:17:43;3.40;99.90
9219;DHT22;4644;48.858;9.184;2023-04-03T02:20:11;3.30;99.90
9219;DHT22;4644;48.858;9.184;2023-04-03T02:22:38;3.40;99.90
9219;DHT22;4644;48.858;9.184;2023-04-03T02:25:09;3.40;99.90
9219;DHT22;4644;48.858;9.184;2023-04-03T02:27:37;3.40;99.90
9219;DHT22;4644;48.858;9.184;2023-04-03T02:30:10;3.50;99.90
9219;DHT22;4644;48.858;9.184;2023-04-03T02:32:38;3.50;99.90
9219;DHT22;4644;48.858;9.184;2023-04-03T02:35:06;3.50;99.90
9219;DHT22;4644;48.858;9.184;2023-04-03T02:37:33;3.40;99.90
9219;DHT22;4644;48.858;9.184;2023-04-03T02:40:00;3.40;99.90
9219;DHT22;4644;48.858;9.184;2023-04-03T02:42:29;3.40;99.90
9219;DHT22;4644;48.858;9.184;2023-04-03T02:44:56;3.50;99.90
9219;DHT22;4644;48.858;9.184;2023-04-03T02:47:23;3.40;99.90
9219;DHT22;4644;48.858;9.184;2023-04-03T02:49:50;3.40;99.90
9219;DHT22;4644;48.858;9.184;2023-04-03T02:52:18;3.50;99.90
9219;DHT22;4644;48.858;9.184;2023-04-03T02:54:45;3.50;99.90
9219;DHT22;4644;48.858;9.184;2023-04-03T02:57:12;3.60;99.90
9219;DHT22;4644;48.858;9.184;2023-04-03T02:59:41;3.60;99.90
9219;DHT22;4644;48.858;9.184;2023-04-03T03:02:08;3.60;99.90
9219;DHT22;4644;48.858;9.184;2023-04-03T03:04:35;3.60;99.90
9219;DHT22;4644;48.858;9.184;2023-04-03T03:07:03;3.60;99.90
9219;DHT22;4644;48.858;9.184;2023-04-03T03:09:30;3.70;99.90
9219;DHT22;4644;48.858;9.184;2023-04-03T03:11:57;3.60;99.90
9219;DHT22;4644;48.858;9.184;2023-04-03T03:14:24;3.60;99.90
9219;DHT22;4644;48.858;9.184;2023-04-03T03:16:52;3.60;99.90
9219;DHT22;4644;48.858;9.184;2023-04-03T03:19:20;3.60;99.90
9219;DHT22;4644;48.858;9.184;2023-04-03T03:21:47;3.60;99.90
9219;DHT22;4644;48.858;9.184;2023-04-03T03:24:14;3.60;99.90
9219;DHT22;4644;48.858;9.184;2023-04-03T03:26:41;3.60;99.90
9219;DHT22;4644;48.858;9.184;2023-04-03T03:29:08;3.60;99.90
9219;DHT22;4644;48.858;9.184;2023-04-03T03:31:35;3.60;99.90
9219;DHT22;4644;48.858;9.184;2023-04-03T03:34:03;3.70;99.90
9219;DHT22;4644;48.858;9.184;2023-04-03T03:36:31;3.70;99.90
9219;DHT22;4644;48.858;9.184;2023-04-03T03:38:58;3.70;99.90
9219;DHT22;4644;48.858;9.184;2023-04-03T03:41:25;3.70;99.90
9219;DHT22;4644;48.858;9.184;2023-04-03T03:43:52;3.60;99.90
9219;DHT22;4644;48.858;9.184;2023-04-03T03:46:19;3.70;99.90
9219;DHT22;4644;48.858;9.184;2023-04-03T03:48:46;3.60;99.90
9219;DHT22;4644;48.858;9.184;2023-04-03T03:51:15;3.60;99.90
9219;DHT22;4644;48.858;9.184;2023-04-03T03:53:42;3.60;99.90
9219;DHT22;4644;48.858;9.184;2023-04-03T03:56:09;3.60;99.90
9219;DHT22;4644;48.858;9.184;2023-04-03T03:58:36;3.60;99.90
9219;DHT22;4644;48.858;9.184;2023-04-03T04:01:04;3.60;99.90
9219;DHT22;4644;48.858;9.184;2023-04-03T04:03:32;3.60;99.90
9219;DHT22;4644;48.858;9.184;2023-04-03T04:06:00;3.60;99.90
9219;DHT22;4644;48.858;9.184;2023-04-03T04:08:29;3.60;99.90
9219;DHT22;4644;48.858;9.184;2023-04-03T04:10:56;3.60;99.90
9219;DHT22;4644;48.858;9.184;2023-04-03T04:13:23;3.50;99.90
9219;DHT22;4644;48.858;9.184;2023-04-03T04:15:50;3.60;99.90
9219;DHT22;4644;48.858;9.184;2023-04-03T04:18:17;3.50;99.90
9219;DHT22;4644;48.858;9.184;2023-04-03T04:20:46;3.60;99.90
9219;DHT22;4644;48.858;9.184;2023-04-03T04:23:13;3.50;99.90
9219;DHT22;4644;48.858;9.184;2023-04-03T04:25:44;3.50;99.90
9219;DHT22;4644;48.858;9.184;2023-04-03T04:28:11;3.50;99.90
9219;DHT22;4644;48.858;9.184;2023-04-03T04:30:38;3.50;99.90
9219;DHT22;4644;48.858;9.184;2023-04-03T04:33:06;3.60;99.90
9219;DHT22;4644;48.858;9.184;2023-04-03T04:35:34;3.60;99.90
9219;DHT22;4644;48.858;9.184;2023-04-03T04:38:01;3.60;99.90
9219;DHT22;4644;48.858;9.184;2023-04-03T04:40:28;3.60;99.90
9219;DHT22;4644;48.858;9.184;2023-04-03T04:42:57;3.60;99.90
9219;DHT22;4644;48.858;9.184;2023-04-03T04:45:24;3.60;99.90
9219;DHT22;4644;48.858;9.184;2023-04-03T04:47:51;3.60;99.90
9219;DHT22;4644;48.858;9.184;2023-04-03T04:50:18;3.60;99.90
9219;DHT22;4644;48.858;9.184;2023-04-03T04:52:45;3.60;99.90
9219;DHT22;4644;48.858;9.184;2023-04-03T04:55:12;3.60;99.90
9219;DHT22;4644;48.858;9.184;2023-04-03T04:57:39;3.60;99.90
9219;DHT22;4644;48.858;9.184;2023-04-03T05:00:09;3.70;99.90
9219;DHT22;4644;48.858;9.184;2023-04-03T05:02:36;3.60;99.90
9219;DHT22;4644;48.858;9.184;2023-04-03T05:05:04;3.60;99.90
9219;DHT22;4644;48.858;9.184;2023-04-03T05:07:31;3.60;99.90
9219;DHT22;4644;48.858;9.184;2023-04-03T05:09:58;3.50;99.90
9219;DHT22;4644;48.858;9.184;2023-04-03T05:12:25;3.50;99.90
9219;DHT22;4644;48.858;9.184;2023-04-03T05:14:52;3.60;99.90
9219;DHT22;4644;48.858;9.184;2023-04-03T05:17:20;3.60;99.90
9219;DHT22;4644;48.858;9.184;2023-04-03T05:19:47;3.70;99.90
9219;DHT22;4644;48.858;9.184;2023-04-03T05:22:14;3.70;99.90
9219;DHT22;4644;48.858;9.184;2023-04-03T05:24:41;3.70;99.90
9219;DHT22;4644;48.858;9.184;2023-04-03T05:27:08;3.70;99.90
9219;DHT22;4644;48.858;9.184;2023-04-03T05:29:36;3.70;99.90
9219;DHT22;4644;48.858;9.184;2023-04-03T05:32:03;3.80;99.90
9219;DHT22;4644;48.858;9.184;2023-04-03T05:34:32;3.70;99.90
9219;DHT22;4644;48.858;9.184;2023-04-03T05:36:59;3.80;99.90
9219;DHT22;4644;48.858;9.184;2023-04-03T05:39:29;3.80;99.90
9219;DHT22;4644;48.858;9.184;2023-04-03T05:41:57;3.90;99.90
9219;DHT22;4644;48.858;9.184;2023-04-03T05:44:24;3.90;99.90
9219;DHT22;4644;48.858;9.184;2023-04-03T05:46:51;3.80;99.90
9219;DHT22;4644;48.858;9.184;2023-04-03T05:49:18;3.80;99.90
9219;DHT22;4644;48.858;9.184;2023-04-03T05:51:46;3.80;99.90
9219;DHT22;4644;48.858;9.184;2023-04-03T05:54:17;3.80;99.90
9219;DHT22;4644;48.858;9.184;2023-04-03T05:56:45;3.70;99.90
9219;DHT22;4644;48.858;9.184;2023-04-03T05:59:12;3.70;99.90
9219;DHT22;4644;48.858;9.184;2023-04-03T06:01:39;3.80;99.90
9219;DHT22;4644;48.858;9.184;2023-04-03T06:04:06;3.70;99.90
9219;DHT22;4644;48.858;9.184;2023-04-03T06:06:50;3.70;99.90
9219;DHT22;4644;48.858;9.184;2023-04-03T06:09:19;3.70;99.90
9219;DHT22;4644;48.858;9.184;2023-04-03T06:11:46;3.70;99.90
9219;DHT22;4644;48.858;9.184;2023-04-03T06:14:13;3.60;99.90
9219;DHT22;4644;48.858;9.184;2023-04-03T06:16:42;3.70;99.90
9219;DHT22;4644;48.858;9.184;2023-04-03T06:19:11;3.70;99.90
9219;DHT22;4644;48.858;9.184;2023-04-03T06:21:38;3.70;99.90
9219;DHT22;4644;48.858;9.184;2023-04-03T06:24:07;3.70;99.90
9219;DHT22;4644;48.858;9.184;2023-04-03T06:26:34;3.70;99.90
9219;DHT22;4644;48.858;9.184;2023-04-03T06:29:01;3.80;99.90
9219;DHT22;4644;48.858;9.184;2023-04-03T06:31:28;3.70;99.90
9219;DHT22;4644;48.858;9.184;2023-04-03T06:33:56;3.70;99.90
9219;DHT22;4644;48.858;9.184;2023-04-03T06:36:23;3.70;99.90
9219;DHT22;4644;48.858;9.184;2023-04-03T06:38:50;3.70;99.90
9219;DHT22;4644;48.858;9.184;2023-04-03T06:41:19;3.70;99.90
9219;DHT22;4644;48.858;9.184;2023-04-03T06:43:47;3.60;99.90
9219;DHT22;4644;48.858;9.184;2023-04-03T06:46:15;3.70;99.90
9219;DHT22;4644;48.858;9.184;2023-04-03T06:48:43;3.60;99.90
9219;DHT22;4644;48.858;9.184;2023-04-03T06:51:18;3.70;99.90
9219;DHT22;4644;48.858;9.184;2023-04-03T06:53:45;3.80;99.90
9219;DHT22;4644;48.858;9.184;2023-04-03T06:56:15;3.90;99.90
9219;DHT22;4644;48.858;9.184;2023-04-03T06:58:47;3.90;99.90
9219;DHT22;4644;48.858;9.184;2023-04-03T07:01:16;4.00;99.90
9219;DHT22;4644;48.858;9.184;2023-04-03T07:03:45;4.00;99.90
9219;DHT22;4644;48.858;9.184;2023-04-03T07:06:17;4.10;99.90
9219;DHT22;4644;48.858;9.184;2023-04-03T07:08:45;4.20;99.90
9219;DHT22;4644;48.858;9.184;2023-04-03T07:11:13;4.20;99.90
9219;DHT22;4644;48.858;9.184;2023-04-03T07:13:41;4.20;99.90
9219;DHT22;4644;48.858;9.184;2023-04-03T07:16:10;4.30;99.90
9219;DHT22;4644;48.858;9.184;2023-04-03T07:18:37;4.40;99.90
9219;DHT22;4644;48.858;9.184;2023-04-03T07:21:04;4.50;99.90
9219;DHT22;4644;48.858;9.184;2023-04-03T07:23:31;4.60;99.90
9219;DHT22;4644;48.858;9.184;2023-04-03T07:25:59;4.60;99.90
9219;DHT22;4644;48.858;9.184;2023-04-03T07:28:27;4.60;99.90
9219;DHT22;4644;48.858;9.184;2023-04-03T07:31:00;4.80;99.90
9219;DHT22;4644;48.858;9.184;2023-04-03T07:33:30;4.80;99.90
9219;DHT22;4644;48.858;9.184;2023-04-03T07:35:58;4.90;99.90
9219;DHT22;4644;48.858;9.184;2023-04-03T07:38:25;5.10;99.90
9219;DHT22;4644;48.858;9.184;2023-04-03T07:40:53;5.50;99.90
9219;DHT22;4644;48.858;9.184;2023-04-03T07:43:21;5.80;99.90
9219;DHT22;4644;48.858;9.184;2023-04-03T07:45:50;6.10;99.90
9219;DHT22;4644;48.858;9.184;2023-04-03T07:48:18;6.50;99.90
9219;DHT22;4644;48.858;9.184;2023-04-03T07:50:47;6.90;99.90
9219;DHT22;4644;48.858;9.184;2023-04-03T07:53:15;7.30;99.90
9219;DHT22;4644;48.858;9.184;2023-04-03T07:55:42;7.50;99.90
9219;DHT22;4644;48.858;9.184;2023-04-03T07:58:10;8.00;99.90
9219;DHT22;4644;48.858;9.184;2023-04-03T08:00:38;8.20;99.90
9219;DHT22;4644;48.858;9.184;2023-04-03T08:03:06;8.40;99.90
9219;DHT22;4644;48.858;9.184;2023-04-03T08:05:37;8.00;99.90
9219;DHT22;4644;48.858;9.184;2023-04-03T08:08:06;7.70;99.90
9219;DHT22;4644;48.858;9.184;2023-04-03T08:10:33;8.10;99.90
9219;DHT22;4644;48.858;9.184;2023-04-03T08:13:01;8.30;99.90
9219;DHT22;4644;48.858;9.184;2023-04-03T08:15:31;8.60;99.90
9219;DHT22;4644;48.858;9.184;2023-04-03T08:17:58;8.60;99.90
9219;DHT22;4644;48.858;9.184;2023-04-03T08:20:26;8.70;99.90
9219;DHT22;4644;48.858;9.184;2023-04-03T08:22:54;8.60;99.90
9219;DHT22;4644;48.858;9.184;2023-04-03T08:25:22;8.10;99.90
9219;DHT22;4644;48.858;9.184;2023-04-03T08:27:54;7.90;99.90
9219;DHT22;4644;48.858;9.184;2023-04-03T08:30:22;7.80;99.90
9219;DHT22;4644;48.858;9.184;2023-04-03T08:32:49;8.00;99.90
9219;DHT22;4644;48.858;9.184;2023-04-03T08:35:16;8.00;99.90
9219;DHT22;4644;48.858;9.184;2023-04-03T08:37:43;7.90;99.90
9219;DHT22;4644;48.858;9.184;2023-04-03T08:40:14;7.70;99.90
9219;DHT22;4644;48.858;9.184;2023-04-03T08:42:57;7.50;99.90
9219;DHT22;4644;48.858;9.184;2023-04-03T08:45:35;7.20;99.90
9219;DHT22;4644;48.858;9.184;2023-04-03T08:48:05;7.20;99.90
9219;DHT22;4644;48.858;9.184;2023-04-03T08:50:37;7.30;99.90
9219;DHT22;4644;48.858;9.184;2023-04-03T08:53:12;7.00;99.90
9219;DHT22;4644;48.858;9.184;2023-04-03T08:55:43;6.90;99.90
9219;DHT22;4644;48.858;9.184;2023-04-03T08:58:15;7.00;99.90
9219;DHT22;4644;48.858;9.184;2023-04-03T09:00:46;6.90;99.90
9219;DHT22;4644;48.858;9.184;2023-04-03T09:03:16;6.90;99.90
9219;DHT22;4644;48.858;9.184;2023-04-03T09:05:48;7.00;99.90
9219;DHT22;4644;48.858;9.184;2023-04-03T09:08:24;7.00;99.90
9219;DHT22;4644;48.858;9.184;2023-04-03T09:11:04;7.20;99.90
9219;DHT22;4644;48.858;9.184;2023-04-03T09:13:43;7.30;99.90
9219;DHT22;4644;48.858;9.184;2023-04-03T09:16:25;7.40;99.90
9219;DHT22;4644;48.858;9.184;2023-04-03T09:19:01;7.30;99.90
9219;DHT22;4644;48.858;9.184;2023-04-03T09:21:32;7.00;99.90
9219;DHT22;4644;48.858;9.184;2023-04-03T09:24:01;7.00;99.90
9219;DHT22;4644;48.858;9.184;2023-04-03T09:26:34;7.00;99.90
9219;DHT22;4644;48.858;9.184;2023-04-03T09:29:06;7.10;99.90
9219;DHT22;4644;48.858;9.184;2023-04-03T09:31:37;7.30;99.90
9219;DHT22;4644;48.858;9.184;2023-04-03T09:34:09;7.40;99.90
9219;DHT22;4644;48.858;9.184;2023-04-03T09:36:45;7.60;99.90
9219;DHT22;4644;48.858;9.184;2023-04-03T09:39:15;7.80;99.90
9219;DHT22;4644;48.858;9.184;2023-04-03T09:41:44;7.90;99.90
9219;DHT22;4644;48.858;9.184;2023-04-03T09:44:24;7.70;99.90
9219;DHT22;4644;48.858;9.184;2023-04-03T09:46:52;7.50;99.90
9219;DHT22;4644;48.858;9.184;2023-04-03T09:49:19;7.40;99.90
9219;DHT22;4644;48.858;9.184;2023-04-03T09:51:46;7.40;99.90
9219;DHT22;4644;48.858;9.184;2023-04-03T09:54:33;7.30;99.90
9219;DHT22;4644;48.858;9.184;2023-04-03T09:57:06;7.30;99.90
9219;DHT22;4644;48.858;9.184;2023-04-03T09:59:38;7.40;99.90
9219;DHT22;4644;48.858;9.184;2023-04-03T10:02:22;7.40;99.90
9219;DHT22;4644;48.858;9.184;2023-04-03T10:04:55;7.30;99.90
9219;DHT22;4644;48.858;9.184;2023-04-03T10:07:33;7.30;99.90
9219;DHT22;4644;48.858;9.184;2023-04-03T10:10:15;7.30;99.90
9219;DHT22;4644;48.858;9.184;2023-04-03T10:12:43;7.50;99.90
9219;DHT22;4644;48.858;9.184;2023-04-03T10:17:57;7.10;99.90
9219;DHT22;4644;48.858;9.184;2023-04-03T10:20:31;6.80;99.90
9219;DHT22;4644;48.858;9.184;2023-04-03T10:23:18;6.80;99.80
9219;DHT22;4644;48.858;9.184;2023-04-03T10:25:57;6.70;99.90
9219;DHT22;4644;48.858;9.184;2023-04-03T10:28:33;6.80;99.90
9219;DHT22;4644;48.858;9.184;2023-04-03T10:31:07;6.60;99.90
9219;DHT22;4644;48.858;9.184;2023-04-03T10:33:47;6.70;99.90
9219;DHT22;4644;48.858;9.184;2023-04-03T10:36:28;6.80;99.90
9219;DHT22;4644;48.858;9.184;2023-04-03T10:39:01;6.70;99.90
9219;DHT22;4644;48.858;9.184;2023-04-03T10:41:39;6.70;99.90
9219;DHT22;4644;48.858;9.184;2023-04-03T10:44:16;6.60;99.50
9219;DHT22;4644;48.858;9.184;2023-04-03T10:46:49;6.60;97.90
9219;DHT22;4644;48.858;9.184;2023-04-03T10:49:41;6.60;98.70
9219;DHT22;4644;48.858;9.184;2023-04-03T10:52:17;6.70;99.30
9219;DHT22;4644;48.858;9.184;2023-04-03T10:54:53;6.70;99.00
9219;DHT22;4644;48.858;9.184;2023-04-03T10:57:24;6.70;97.90
9219;DHT22;4644;48.858;9.184;2023-04-03T10:59:55;6.90;98.30
9219;DHT22;4644;48.858;9.184;2023-04-03T11:02:26;6.90;97.70
9219;DHT22;4644;48.858;9.184;2023-04-03T11:04:59;7.00;98.50
9219;DHT22;4644;48.858;9.184;2023-04-03T11:07:28;7.20;97.60
9219;DHT22;4644;48.858;9.184;2023-04-03T11:10:02;7.10;96.50
9219;DHT22;4644;48.858;9.184;2023-04-03T11:12:36;7.10;97.90
9219;DHT22;4644;48.858;9.184;2023-04-03T11:15:10;7.20;97.60
9219;DHT22;4644;48.858;9.184;2023-04-03T11:17:41;7.10;97.00
9219;DHT22;4644;48.858;9.184;2023-04-03T11:20:18;7.20;97.30
9219;DHT22;4644;48.858;9.184;2023-04-03T11:22:50;7.20;96.30
9219;DHT22;4644;48.858;9.184;2023-04-03T11:25:20;7.10;96.00
9219;DHT22;4644;48.858;9.184;2023-04-03T11:27:53;6.90;95.50
9219;DHT22;4644;48.858;9.184;2023-04-03T11:30:25;7.10;96.90
9219;DHT22;4644;48.858;9.184;2023-04-03T11:33:21;7.00;96.40
9219;DHT22;4644;48.858;9.184;2023-04-03T11:35:55;7.00;96.50
9219;DHT22;4644;48.858;9.184;2023-04-03T11:38:28;7.00;97.20
9219;DHT22;4644;48.858;9.184;2023-04-03T11:40:56;6.90;96.80
9219;DHT22;4644;48.858;9.184;2023-04-03T11:43:26;6.80;97.00
9219;DHT22;4644;48.858;9.184;2023-04-03T11:45:56;6.90;96.70
9219;DHT22;4644;48.858;9.184;2023-04-03T11:48:48;6.70;97.00
9219;DHT22;4644;48.858;9.184;2023-04-03T11:51:42;6.70;98.60
9219;DHT22;4644;48.858;9.184;2023-04-03T11:54:35;6.80;97.10
9219;DHT22;4644;48.858;9.184;2023-04-03T12:03:33;7.50;97.00
9219;DHT22;4644;48.858;9.184;2023-04-03T12:09:33;7.80;95.80
9219;DHT22;4644;48.858;9.184;2023-04-03T12:12:27;7.80;94.60
9219;DHT22;4644;48.858;9.184;2023-04-03T12:14:54;7.70;93.80
9219;DHT22;4644;48.858;9.184;2023-04-03T12:17:26;7.70;93.50
9219;DHT22;4644;48.858;9.184;2023-04-03T12:19:55;7.60;93.90
9219;DHT22;4644;48.858;9.184;2023-04-03T12:22:23;7.50;93.40
9219;DHT22;4644;48.858;9.184;2023-04-03T12:24:52;7.60;93.30
9219;DHT22;4644;48.858;9.184;2023-04-03T12:27:30;7.60;93.90
9219;DHT22;4644;48.858;9.184;2023-04-03T12:30:16;7.80;93.80
9219;DHT22;4644;48.858;9.184;2023-04-03T12:33:24;8.00;93.80
9219;DHT22;4644;48.858;9.184;2023-04-03T12:36:02;8.30;94.80
9219;DHT22;4644;48.858;9.184;2023-04-03T12:38:41;8.10;92.20
9219;DHT22;4644;48.858;9.184;2023-04-03T12:41:23;7.90;91.50
9219;DHT22;4644;48.858;9.184;2023-04-03T12:44:24;7.70;93.00
9219;DHT22;4644;48.858;9.184;2023-04-03T12:46:54;7.60;92.50
9219;DHT22;4644;48.858;9.184;2023-04-03T12:49:35;7.50;92.90
9219;DHT22;4644;48.858;9.184;2023-04-03T12:52:05;7.40;92.60
9219;DHT22;4644;48.858;9.184;2023-04-03T12:54:35;7.30;92.60
9219;DHT22;4644;48.858;9.184;2023-04-03T12:57:10;7.30;93.70
9219;DHT22;4644;48.858;9.184;2023-04-03T12:59:38;7.30;93.40
9219;DHT22;4644;48.858;9.184;2023-04-03T13:02:22;7.40;93.10
9219;DHT22;4644;48.858;9.184;2023-04-03T13:04:50;7.30;93.50
9219;DHT22;4644;48.858;9.184;2023-04-03T13:07:26;7.40;93.40
9219;DHT22;4644;48.858;9.184;2023-04-03T13:09:58;7.40;93.00
9219;DHT22;4644;48.858;9.184;2023-04-03T13:12:27;7.60;93.50
9219;DHT22;4644;48.858;9.184;2023-04-03T13:14:55;7.60;93.00
9219;DHT22;4644;48.858;9.184;2023-04-03T13:17:24;7.40;93.10
9219;DHT22;4644;48.858;9.184;2023-04-03T13:19:51;7.40;93.30
9219;DHT22;4644;48.858;9.184;2023-04-03T13:22:27;7.30;92.50
9219;DHT22;4644;48.858;9.184;2023-04-03T13:24:58;7.30;95.50
9219;DHT22;4644;48.858;9.184;2023-04-03T13:27:30;7.30;92.90
9219;DHT22;4644;48.858;9.184;2023-04-03T13:29:59;7.20;92.70
9219;DHT22;4644;48.858;9.184;2023-04-03T13:32:29;7.40;92.70
9219;DHT22;4644;48.858;9.184;2023-04-03T13:34:57;7.60;92.50
9219;DHT22;4644;48.858;9.184;2023-04-03T13:37:26;7.90;91.60
9219;DHT22;4644;48.858;9.184;2023-04-03T13:39:59;7.90;90.60
9219;DHT22;4644;48.858;9.184;2023-04-03T13:42:30;7.90;89.70
9219;DHT22;4644;48.858;9.184;2023-04-03T13:45:11;8.20;90.80
9219;DHT22;4644;48.858;9.184;2023-04-03T13:47:45;8.50;91.20
9219;DHT22;4644;48.858;9.184;2023-04-03T13:50:16;8.70;89.00
9219;DHT22;4644;48.858;9.184;2023-04-03T13:52:45;8.70;90.10
9219;DHT22;4644;48.858;9.184;2023-04-03T13:55:20;8.80;88.00
9219;DHT22;4644;48.858;9.184;2023-04-03T13:57:54;8.30;86.70
9219;DHT22;4644;48.858;9.184;2023-04-03T14:00:33;8.30;88.60
9219;DHT22;4644;48.858;9.184;2023-04-03T14:03:11;8.20;88.50
9219;DHT22;4644;48.858;9.184;2023-04-03T14:05:38;8.30;88.60
9219;DHT22;4644;48.858;9.184;2023-04-03T14:08:05;8.40;88.70
9219;DHT22;4644;48.858;9.184;2023-04-03T14:10:33;8.40;90.40
9219;DHT22;4644;48.858;9.184;2023-04-03T14:13:01;8.40;90.60
9219;DHT22;4644;48.858;9.184;2023-04-03T14:15:30;8.50;88.80
9219;DHT22;4644;48.858;9.184;2023-04-03T14:17:58;8.30;88.60
9219;DHT22;4644;48.858;9.184;2023-04-03T14:20:26;8.30;88.60
9219;DHT22;4644;48.858;9.184;2023-04-03T14:22:54;8.10;86.70
9219;DHT22;4644;48.858;9.184;2023-04-03T14:25:21;8.00;84.20
9219;DHT22;4644;48.858;9.184;2023-04-03T14:27:50;8.00;84.20
9219;DHT22;4644;48.858;9.184;2023-04-03T14:30:21;8.20;84.10
9219;DHT22;4644;48.858;9.184;2023-04-03T14:32:49;7.90;84.90
9219;DHT22;4644;48.858;9.184;2023-04-03T14:35:18;7.90;85.00
9219;DHT22;4644;48.858;9.184;2023-04-03T14:37:47;8.10;82.70
9219;DHT22;4644;48.858;9.184;2023-04-03T14:40:17;8.20;87.10
9219;DHT22;4644;48.858;9.184;2023-04-03T14:42:44;8.30;84.60
9219;DHT22;4644;48.858;9.184;2023-04-03T14:45:13;8.40;83.20
9219;DHT22;4644;48.858;9.184;2023-04-03T14:47:44;8.20;83.10
9219;DHT22;4644;48.858;9.184;2023-04-03T14:50:17;8.10;84.40
9219;DHT22;4644;48.858;9.184;2023-04-03T14:52:45;8.10;85.30
9219;DHT22;4644;48.858;9.184;2023-04-03T14:55:14;8.10;84.40
9219;DHT22;4644;48.858;9.184;2023-04-03T14:57:41;8.10;82.20
9219;DHT22;4644;48.858;9.184;2023-04-03T15:00:16;8.20;82.30
9219;DHT22;4644;48.858;9.184;2023-04-03T15:02:46;7.90;79.60
9219;DHT22;4644;48.858;9.184;2023-04-03T15:05:17;7.80;83.60
9219;DHT22;4644;48.858;9.184;2023-04-03T15:07:47;8.00;84.40
9219;DHT22;4644;48.858;9.184;2023-04-03T15:10:18;8.10;82.90
9219;DHT22;4644;48.858;9.184;2023-04-03T15:12:47;8.20;80.90
9219;DHT22;4644;48.858;9.184;2023-04-03T15:15:16;8.30;80.30
9219;DHT22;4644;48.858;9.184;2023-04-03T15:17:45;8.40;83.00
9219;DHT22;4644;48.858;9.184;2023-04-03T15:20:15;8.30;82.30
9219;DHT22;4644;48.858;9.184;2023-04-03T15:22:43;8.10;81.90
9219;DHT22;4644;48.858;9.184;2023-04-03T15:25:10;8.00;81.30
9219;DHT22;4644;48.858;9.184;2023-04-03T15:27:38;7.90;83.80
9219;DHT22;4644;48.858;9.184;2023-04-03T15:30:08;7.90;86.10
9219;DHT22;4644;48.858;9.184;2023-04-03T15:32:35;7.90;88.20
9219;DHT22;4644;48.858;9.184;2023-04-03T15:35:04;7.70;84.60
9219;DHT22;4644;48.858;9.184;2023-04-03T15:37:34;7.60;81.70
9219;DHT22;4644;48.858;9.184;2023-04-03T15:40:04;7.40;82.40
9219;DHT22;4644;48.858;9.184;2023-04-03T15:42:31;7.30;80.30
9219;DHT22;4644;48.858;9.184;2023-04-03T15:44:58;7.30;82.80
9219;DHT22;4644;48.858;9.184;2023-04-03T15:47:26;7.30;80.40
9219;DHT22;4644;48.858;9.184;2023-04-03T15:49:56;7.40;84.30
9219;DHT22;4644;48.858;9.184;2023-04-03T15:52:24;7.50;80.50
9219;DHT22;4644;48.858;9.184;2023-04-03T15:54:51;7.80;82.80
9219;DHT22;4644;48.858;9.184;2023-04-03T15:57:18;7.90;80.90
9219;DHT22;4644;48.858;9.184;2023-04-03T15:59:45;8.00;80.70
9219;DHT22;4644;48.858;9.184;2023-04-03T16:02:13;8.00;81.40
9219;DHT22;4644;48.858;9.184;2023-04-03T16:04:40;8.00;78.40
9219;DHT22;4644;48.858;9.184;2023-04-03T16:07:07;7.80;80.40
9219;DHT22;4644;48.858;9.184;2023-04-03T16:09:36;7.70;83.30
9219;DHT22;4644;48.858;9.184;2023-04-03T16:12:04;7.40;81.10
9219;DHT22;4644;48.858;9.184;2023-04-03T16:14:31;7.10;81.20
9219;DHT22;4644;48.858;9.184;2023-04-03T16:16:59;7.00;82.10
9219;DHT22;4644;48.858;9.184;2023-04-03T16:19:26;6.90;80.90
9219;DHT22;4644;48.858;9.184;2023-04-03T16:21:54;6.80;80.30
9219;DHT22;4644;48.858;9.184;2023-04-03T16:24:22;6.70;81.00
9219;DHT22;4644;48.858;9.184;2023-04-03T16:26:50;6.70;80.50
9219;DHT22;4644;48.858;9.184;2023-04-03T16:29:19;6.70;83.60
9219;DHT22;4644;48.858;9.184;2023-04-03T16:31:46;6.80;83.20
9219;DHT22;4644;48.858;9.184;2023-04-03T16:34:13;6.90;85.40
9219;DHT22;4644;48.858;9.184;2023-04-03T16:36:41;6.90;85.00
9219;DHT22;4644;48.858;9.184;2023-04-03T16:39:08;6.90;84.10
9219;DHT22;4644;48.858;9.184;2023-04-03T16:41:35;6.70;84.20
9219;DHT22;4644;48.858;9.184;2023-04-03T16:44:05;6.80;84.90
9219;DHT22;4644;48.858;9.184;2023-04-03T16:46:33;6.80;82.20
9219;DHT22;4644;48.858;9.184;2023-04-03T16:49:01;6.70;82.10
9219;DHT22;4644;48.858;9.184;2023-04-03T16:51:28;6.60;82.90